Time;durP1;ratioP1;P1;durP2;ratioP2;P2;SDS_P1;SDS_P2;PMS_P1;PMS_P2;Temp;Humidity;BMP_temperature;BMP_pressure;BME280_temperature;BME280_humidity;BME280_pressure;Samples;Min_cycle;Max_cycle;Signal;HPM_P1;HPM_P2
2023/12/05 00:02:18;;;;;;;10.83;8.13;;;;;;;7.92;56.81;97593.00;8360878;23;20778;-75
2023/12/05 00:05:41;;;;;;;9.40;7.30;;;;;;;8.15;56.28;97585.19;8360870;23;20270;-76
2023/12/05 00:09:03;;;;;;;9.27;6.70;;;;;;;8.28;55.40;97601.19;8360444;23;20271;-75
2023/12/05 00:12:25;;;;;;;8.87;6.93;;;;;;;8.42;55.27;97592.00;8360699;23;20682;-75
2023/12/05 00:15:46;;;;;;;7.67;6.33;;;;;;;8.45;55.71;97586.16;8360494;23;20292;-75
2023/12/05 00:19:08;;;;;;;8.50;6.70;;;;;;;8.55;55.58;97591.88;8360743;23;20753;-76
2023/12/05 00:22:31;;;;;;;7.77;6.23;;;;;;;8.53;55.33;97575.13;8361566;23;20206;-75
2023/12/05 00:25:53;;;;;;;9.70;7.37;;;;;;;8.51;54.95;97555.75;8357857;23;20297;-77
2023/12/05 00:29:14;;;;;;;9.87;5.50;;;;;;;8.44;56.53;97576.47;8357201;23;20342;-76
2023/12/05 00:32:36;;;;;;;9.93;7.27;;;;;;;8.24;56.28;97582.03;8359975;23;20251;-76
2023/12/05 00:35:57;;;;;;;7.07;5.67;;;;;;;8.44;56.23;97579.97;8361510;23;20296;-76
2023/12/05 00:39:20;;;;;;;8.20;6.43;;;;;;;8.38;56.59;97598.84;8359837;23;20281;-76
2023/12/05 00:42:42;;;;;;;20.70;14.77;;;;;;;8.05;56.25;97595.56;8362444;23;20278;-77
2023/12/05 00:46:04;;;;;;;14.13;9.87;;;;;;;8.02;56.79;97612.94;8362972;23;20203;-76
2023/12/05 00:49:25;;;;;;;14.80;10.13;;;;;;;7.34;58.89;97595.00;8362273;23;20285;-75
2023/12/05 00:52:47;;;;;;;14.03;9.80;;;;;;;7.47;59.28;97599.47;8362951;23;20351;-75
2023/12/05 00:56:14;;;;;;;11.87;9.10;;;;;;;7.68;58.68;97599.97;8361534;23;20658;-75
2023/12/05 00:59:35;;;;;;;12.70;8.37;;;;;;;7.35;60.46;97618.09;8361786;23;20207;-75
2023/12/05 01:02:57;;;;;;;10.53;8.40;;;;;;;6.90;61.50;97618.28;8363333;23;20648;-75
2023/12/05 01:06:19;;;;;;;11.17;7.53;;;;;;;7.73;59.96;97610.06;8363502;23;20211;-76
2023/12/05 01:09:40;;;;;;;9.83;7.43;;;;;;;7.91;58.36;97621.69;8362525;23;20204;-75
2023/12/05 01:13:03;;;;;;;10.60;8.70;;;;;;;7.91;58.21;97636.97;8363340;23;20667;-76
2023/12/05 01:16:24;;;;;;;12.17;8.63;;;;;;;7.76;58.11;97636.44;8363310;23;20293;-75
2023/12/05 01:19:46;;;;;;;10.60;7.67;;;;;;;8.01;57.50;97638.13;8362412;23;20230;-75
2023/12/05 01:23:08;;;;;;;8.77;7.60;;;;;;;7.80;58.51;97640.34;8362962;23;20198;-75
2023/12/05 01:26:29;;;;;;;8.90;7.60;;;;;;;7.82;57.51;97623.00;8361224;23;20223;-76
2023/12/05 01:29:52;;;;;;;8.93;7.30;;;;;;;7.66;58.22;97622.69;8362375;23;20296;-76
2023/12/05 01:33:14;;;;;;;10.50;7.73;;;;;;;6.73;61.05;97635.84;8363417;23;20646;-76
2023/12/05 01:36:35;;;;;;;11.07;8.63;;;;;;;6.48;62.04;97634.84;8363238;23;20355;-76
2023/12/05 01:39:57;;;;;;;11.00;8.47;;;;;;;6.81;61.59;97628.41;8361786;23;20337;-76
2023/12/05 01:43:18;;;;;;;8.90;7.57;;;;;;;7.13;60.25;97629.34;8363015;23;20276;-76
2023/12/05 01:46:42;;;;;;;8.73;6.50;;;;;;;7.38;60.05;97617.66;8363184;23;20557;-77
2023/12/05 01:50:05;;;;;;;7.70;6.50;;;;;;;7.38;60.33;97622.22;8362228;23;20282;-76
2023/12/05 01:53:30;;;;;;;8.90;7.20;;;;;;;7.57;60.13;97622.13;8362713;23;20171;-75
2023/12/05 01:56:52;;;;;;;7.97;6.77;;;;;;;6.95;61.50;97629.19;8362917;23;20648;-76
2023/12/05 02:00:15;;;;;;;10.80;9.00;;;;;;;7.40;60.14;97622.81;8362234;23;20298;-76
2023/12/05 02:03:39;;;;;;;8.73;7.33;;;;;;;7.53;60.00;97615.53;8362951;23;20267;-77
2023/12/05 02:07:00;;;;;;;13.10;7.80;;;;;;;7.35;60.37;97634.19;8362972;23;20266;-77
2023/12/05 02:10:23;;;;;;;9.57;7.50;;;;;;;6.69;62.21;97623.91;8362037;23;20281;-75
2023/12/05 02:13:44;;;;;;;10.47;8.57;;;;;;;6.70;62.49;97604.09;8362890;23;20533;-75
2023/12/05 02:17:11;;;;;;;9.77;7.93;;;;;;;7.67;60.03;97613.59;8360426;23;20753;-75
2023/12/05 02:20:41;;;;;;;10.63;8.53;;;;;;;7.81;59.12;97621.34;8362062;23;20234;-77
2023/12/05 02:24:21;;;;;;;10.03;8.03;;;;;;;7.61;59.45;97617.94;8362195;23;20170;-76
2023/12/05 02:27:44;;;;;;;11.27;8.07;;;;;;;7.24;60.01;97621.44;8361092;23;20250;-76
2023/12/05 02:31:07;;;;;;;10.53;7.63;;;;;;;7.60;59.45;97627.03;8362066;23;20277;-76
2023/12/05 02:34:29;;;;;;;7.73;6.90;;;;;;;6.98;60.26;97623.41;8362210;23;20193;-77
2023/12/05 02:37:55;;;;;;;7.93;6.03;;;;;;;7.42;59.15;97629.59;8362763;23;20583;-76
2023/12/05 02:41:20;;;;;;;9.20;6.77;;;;;;;6.83;60.90;97622.84;8361731;23;20275;-76
2023/12/05 02:44:45;;;;;;;7.93;6.23;;;;;;;7.30;59.78;97617.91;8362795;23;20302;-76
2023/12/05 02:48:11;;;;;;;9.90;7.53;;;;;;;6.73;60.38;97614.41;8361515;23;20267;-79
2023/12/05 02:51:32;;;;;;;9.20;7.30;;;;;;;6.91;60.27;97639.53;8362675;23;20220;-76
2023/12/05 02:54:53;;;;;;;9.10;7.07;;;;;;;6.53;60.68;97633.19;8362354;23;20309;-76
2023/12/05 02:58:15;;;;;;;9.07;7.77;;;;;;;6.55;61.18;97633.00;8362020;23;20233;-77
2023/12/05 03:01:41;;;;;;;9.73;7.20;;;;;;;6.84;59.76;97645.91;8362521;23;20284;-76
2023/12/05 03:05:06;;;;;;;8.90;7.23;;;;;;;6.22;61.07;97635.69;8362467;23;20693;-77
2023/12/05 03:08:27;;;;;;;9.83;7.30;;;;;;;6.06;61.83;97646.78;8361576;23;20248;-77
2023/12/05 03:11:49;;;;;;;8.40;7.60;;;;;;;6.13;62.87;97654.84;8361636;23;20644;-77
2023/12/05 03:15:11;;;;;;;9.30;7.90;;;;;;;6.12;62.00;97640.63;8362135;23;20243;-78
2023/12/05 03:18:33;;;;;;;10.83;7.80;;;;;;;5.99;64.25;97643.28;8361466;23;20201;-78
2023/12/05 03:21:55;;;;;;;9.57;7.93;;;;;;;6.50;62.49;97649.69;8361620;23;20209;-78
2023/12/05 03:25:17;;;;;;;10.30;8.47;;;;;;;6.57;61.04;97652.34;8362452;23;20182;-77
2023/12/05 03:28:38;;;;;;;9.83;7.90;;;;;;;6.50;61.02;97651.53;8361422;23;20497;-78
2023/12/05 03:32:00;;;;;;;10.50;8.27;;;;;;;6.34;62.98;97671.50;8361784;23;20244;-78
2023/12/05 03:35:22;;;;;;;11.33;8.60;;;;;;;6.39;63.87;97647.63;8362109;23;20729;-77
2023/12/05 03:38:44;;;;;;;10.53;8.20;;;;;;;6.75;61.47;97655.19;8361203;23;20528;-77
2023/12/05 03:42:06;;;;;;;10.07;9.00;;;;;;;6.93;60.69;97642.78;8361730;23;20241;-76
2023/12/05 03:45:27;;;;;;;9.00;7.73;;;;;;;6.19;61.56;97635.28;8362387;23;20209;-76
2023/12/05 03:48:49;;;;;;;9.27;7.80;;;;;;;6.83;60.68;97652.31;8361289;23;20292;-76
2023/12/05 03:52:12;;;;;;;10.30;7.83;;;;;;;6.62;60.91;97660.56;8362085;23;20319;-76
2023/12/05 03:55:34;;;;;;;9.87;7.27;;;;;;;6.72;60.91;97656.44;8362217;23;20221;-77
2023/12/05 03:58:55;;;;;;;8.63;7.07;;;;;;;5.86;62.55;97661.16;8360617;23;20286;-76
2023/12/05 04:02:17;;;;;;;9.33;7.73;;;;;;;6.18;63.54;97668.44;8362126;23;20260;-76
2023/12/05 04:05:39;;;;;;;10.97;7.73;;;;;;;6.24;63.20;97662.25;8362197;23;20209;-76
2023/12/05 04:09:03;;;;;;;8.50;7.60;;;;;;;6.32;61.79;97654.81;8358376;23;20179;-76
2023/12/05 04:12:25;;;;;;;9.27;7.30;;;;;;;6.00;62.55;97663.66;8362071;23;20166;-76
2023/12/05 04:15:46;;;;;;;10.80;7.70;;;;;;;6.10;62.59;97658.75;8361655;23;20265;-76
2023/12/05 04:19:08;;;;;;;11.43;8.13;;;;;;;6.54;61.19;97647.41;8362989;23;20280;-77
2023/12/05 04:22:29;;;;;;;10.87;7.40;;;;;;;5.96;61.95;97632.19;8363375;23;20182;-77
2023/12/05 04:25:52;;;;;;;10.23;6.97;;;;;;;5.74;62.92;97668.13;8363055;23;20502;-77
2023/12/05 04:29:14;;;;;;;11.80;7.37;;;;;;;5.52;64.74;97677.28;8361830;23;20229;-76
2023/12/05 04:32:35;;;;;;;8.93;7.30;;;;;;;6.02;63.50;97682.19;8363711;23;20213;-76
2023/12/05 04:35:57;;;;;;;8.07;7.17;;;;;;;6.09;62.38;97661.63;8363232;23;20191;-76
2023/12/05 04:39:19;;;;;;;9.67;7.80;;;;;;;6.06;62.80;97678.06;8362743;23;20239;-78
2023/12/05 04:42:41;;;;;;;8.70;7.73;;;;;;;6.29;61.96;97683.84;8363398;23;20252;-77
2023/12/05 04:46:03;;;;;;;10.17;7.80;;;;;;;6.14;61.59;97672.53;8360407;23;20191;-78
2023/12/05 04:49:25;;;;;;;10.00;7.30;;;;;;;6.08;61.70;97659.97;8358237;23;20741;-77
2023/12/05 04:52:46;;;;;;;10.10;7.87;;;;;;;5.86;62.46;97670.03;8363344;23;20265;-77
2023/12/05 04:56:09;;;;;;;12.50;8.10;;;;;;;5.55;63.96;97660.88;8382009;23;20209;-77
2023/12/05 04:59:31;;;;;;;10.53;8.37;;;;;;;6.20;62.21;97658.34;8360992;23;20291;-78
2023/12/05 05:02:53;;;;;;;11.30;7.93;;;;;;;5.91;61.89;97653.38;8363197;23;20643;-78
2023/12/05 05:06:14;;;;;;;11.07;8.50;;;;;;;6.37;61.35;97657.69;8363364;23;20239;-77
2023/12/05 05:09:36;;;;;;;9.83;8.10;;;;;;;6.32;61.40;97659.38;8362628;23;20281;-76
2023/12/05 05:12:57;;;;;;;8.90;7.50;;;;;;;5.62;62.95;97664.38;8363639;23;20281;-76
2023/12/05 05:16:20;;;;;;;9.07;7.73;;;;;;;5.77;63.85;97657.84;8361739;23;20239;-76
2023/12/05 05:19:42;;;;;;;10.23;8.00;;;;;;;6.10;62.24;97652.56;8362560;23;20236;-75
2023/12/05 05:23:04;;;;;;;10.77;8.33;;;;;;;6.24;62.56;97678.31;8360054;23;20632;-75
2023/12/05 05:26:25;;;;;;;10.07;8.17;;;;;;;5.69;63.42;97665.22;8363101;23;20188;-76
2023/12/05 05:29:47;;;;;;;11.37;8.50;;;;;;;6.19;63.12;97664.72;8359059;23;20272;-75
2023/12/05 05:33:10;;;;;;;9.13;7.57;;;;;;;5.82;62.48;97675.97;8361597;23;20618;-75
2023/12/05 05:36:31;;;;;;;10.40;7.83;;;;;;;5.46;65.52;97673.59;8361133;23;20268;-75
2023/12/05 05:39:53;;;;;;;11.07;8.10;;;;;;;5.96;64.58;97674.97;8360868;23;20764;-75
2023/12/05 05:43:15;;;;;;;10.47;8.07;;;;;;;6.33;62.70;97674.38;8363581;23;20193;-76
2023/12/05 05:46:36;;;;;;;12.37;8.40;;;;;;;6.58;61.20;97672.72;8362677;23;20316;-75
2023/12/05 05:49:59;;;;;;;12.47;8.50;;;;;;;6.57;61.46;97676.44;8359572;23;20209;-76
2023/12/05 05:53:20;;;;;;;13.20;9.30;;;;;;;6.24;62.65;97665.75;8360561;23;20328;-75
2023/12/05 05:56:42;;;;;;;16.10;10.07;;;;;;;6.56;61.34;97661.41;8362016;23;20186;-75
2023/12/05 06:00:04;;;;;;;9.43;6.13;;;;;;;7.00;61.00;97669.56;8361240;23;20206;-75
2023/12/05 06:03:28;;;;;;;9.73;7.10;;;;;;;7.06;60.50;97672.22;8362008;23;20225;-76
2023/12/05 06:06:51;;;;;;;10.23;7.70;;;;;;;6.34;61.08;97674.19;8361942;23;20188;-76
2023/12/05 06:10:12;;;;;;;9.77;8.30;;;;;;;6.81;60.59;97690.00;8361527;23;20233;-77
2023/12/05 06:13:34;;;;;;;9.40;7.40;;;;;;;6.79;60.44;97664.47;8362025;23;20263;-76
2023/12/05 06:16:55;;;;;;;11.37;7.27;;;;;;;6.98;60.43;97685.88;8362660;23;20192;-76
2023/12/05 06:20:17;;;;;;;9.37;6.87;;;;;;;7.31;59.59;97683.09;8360884;23;20202;-75
2023/12/05 06:23:40;;;;;;;7.03;6.27;;;;;;;7.15;59.83;97657.59;8362709;23;20256;-75
2023/12/05 06:27:01;;;;;;;8.67;7.10;;;;;;;7.35;59.42;97679.75;8362621;23;20256;-76
2023/12/05 06:30:23;;;;;;;10.03;7.00;;;;;;;7.20;59.40;97668.47;8361602;23;20215;-77
2023/12/05 06:33:44;;;;;;;5.70;5.20;;;;;;;7.25;58.00;97690.09;8361977;23;20213;-77
2023/12/05 06:37:06;;;;;;;5.83;5.23;;;;;;;7.16;58.65;97698.59;8362203;23;20182;-78
2023/12/05 06:40:29;;;;;;;6.57;5.87;;;;;;;7.11;59.10;97693.03;8360528;23;20244;-77
2023/12/05 06:43:51;;;;;;;5.60;5.10;;;;;;;7.25;58.92;97695.47;8361894;23;20195;-77
2023/12/05 06:47:12;;;;;;;4.97;4.33;;;;;;;7.15;60.29;97695.09;8362081;23;20193;-77
2023/12/05 06:50:34;;;;;;;5.43;4.93;;;;;;;7.20;59.02;97700.63;8360369;23;20280;-77
2023/12/05 06:53:55;;;;;;;8.93;6.33;;;;;;;7.36;58.73;97705.53;8361854;23;20265;-77
2023/12/05 06:57:18;;;;;;;6.07;5.47;;;;;;;6.83;59.29;97714.72;8361666;23;20264;-77
2023/12/05 07:00:40;;;;;;;6.67;5.27;;;;;;;7.32;58.60;97719.59;8360552;23;20289;-77
2023/12/05 07:04:01;;;;;;;6.33;5.70;;;;;;;7.20;58.24;97732.78;8359366;23;20187;-77
2023/12/05 07:07:23;;;;;;;7.73;5.77;;;;;;;6.85;59.15;97718.00;8360947;23;20297;-77
2023/12/05 07:10:44;;;;;;;6.90;5.50;;;;;;;7.03;58.49;97725.41;8360163;23;20563;-76
2023/12/05 07:14:08;;;;;;;8.37;5.70;;;;;;;6.89;57.82;97729.97;8362063;23;20318;-77
2023/12/05 07:17:29;;;;;;;7.80;6.40;;;;;;;6.68;58.31;97729.38;8362031;23;20190;-77
2023/12/05 07:20:50;;;;;;;6.93;6.03;;;;;;;6.46;60.22;97726.09;8361685;23;20689;-76
2023/12/05 07:24:12;;;;;;;6.07;5.17;;;;;;;6.83;60.76;97743.38;8362196;23;20268;-75
2023/12/05 07:27:35;;;;;;;6.53;5.10;;;;;;;7.07;60.78;97746.22;8360154;23;20326;-77
2023/12/05 07:30:58;;;;;;;5.60;5.10;;;;;;;7.22;59.19;97746.00;8357276;23;20245;-76
2023/12/05 07:34:19;;;;;;;5.33;4.33;;;;;;;7.18;59.60;97750.16;8359164;23;20272;-75
2023/12/05 07:37:41;;;;;;;5.17;4.67;;;;;;;7.38;59.83;97749.03;8358122;23;20347;-75
2023/12/05 07:41:02;;;;;;;5.20;4.67;;;;;;;7.42;59.48;97755.63;8357465;23;20799;-76
2023/12/05 07:44:24;;;;;;;6.57;4.60;;;;;;;7.33;59.74;97750.72;8361607;23;20313;-75
2023/12/05 07:47:48;;;;;;;4.73;3.70;;;;;;;7.80;59.17;97743.13;8360644;23;20238;-76
2023/12/05 07:51:15;;;;;;;4.23;3.93;;;;;;;8.28;58.09;97752.41;8360930;23;20297;-75
2023/12/05 07:54:36;;;;;;;5.63;4.43;;;;;;;8.32;56.86;97742.03;8363430;23;20678;-74
2023/12/05 07:57:58;;;;;;;6.53;3.67;;;;;;;8.41;57.73;97756.84;8362620;23;20290;-75
2023/12/05 08:01:19;;;;;;;4.63;3.77;;;;;;;8.84;56.60;97757.78;8362665;23;20806;-74
2023/12/05 08:04:42;;;;;;;4.57;3.73;;;;;;;8.86;56.10;97758.38;8360808;23;20197;-75
2023/12/05 08:08:04;;;;;;;4.57;3.77;;;;;;;8.97;56.54;97779.16;8362509;23;20168;-74
2023/12/05 08:11:26;;;;;;;4.83;3.80;;;;;;;9.42;54.65;97770.66;8363190;23;20240;-73
2023/12/05 08:14:48;;;;;;;4.13;3.50;;;;;;;9.58;54.48;97762.81;8361781;23;20221;-74
2023/12/05 08:18:09;;;;;;;8.87;7.07;;;;;;;9.80;53.93;97771.28;8360856;23;20212;-74
2023/12/05 08:21:32;;;;;;;8.80;6.53;;;;;;;9.74;53.39;97764.91;8362127;23;20208;-74
2023/12/05 08:24:54;;;;;;;10.50;7.90;;;;;;;9.46;54.05;97755.72;8362175;23;20584;-74
2023/12/05 08:28:15;;;;;;;7.23;6.33;;;;;;;10.17;53.09;97759.44;8362002;23;20183;-73
2023/12/05 08:31:37;;;;;;;7.63;5.63;;;;;;;12.71;46.33;97752.84;8362328;23;20232;-74
2023/12/05 08:34:58;;;;;;;6.20;5.60;;;;;;;14.20;43.67;97753.47;8363108;23;20622;-74
2023/12/05 08:38:21;;;;;;;6.60;5.00;;;;;;;14.89;40.97;97730.88;8361760;23;20216;-75
2023/12/05 08:41:43;;;;;;;5.27;4.60;;;;;;;13.81;42.17;97728.31;8362380;23;20358;-75
2023/12/05 08:45:05;;;;;;;4.80;4.30;;;;;;;12.82;44.11;97741.97;8362868;23;20205;-73
2023/12/05 08:48:27;;;;;;;8.57;5.33;;;;;;;12.22;45.42;97748.13;8361835;23;20604;-75
2023/12/05 08:51:48;;;;;;;4.10;3.43;;;;;;;11.30;48.50;97743.72;8362503;23;20675;-75
2023/12/05 08:55:11;;;;;;;4.13;3.13;;;;;;;10.95;49.15;97752.84;8362450;23;20218;-74
2023/12/05 08:58:33;;;;;;;3.47;2.80;;;;;;;10.74;49.81;97778.47;8361377;23;20284;-74
2023/12/05 09:01:55;;;;;;;3.73;3.07;;;;;;;11.18;49.06;97769.06;8362072;23;20209;-74
2023/12/05 09:05:16;;;;;;;3.50;2.80;;;;;;;11.74;48.20;97774.72;8362756;23;20637;-74
2023/12/05 09:08:38;;;;;;;2.70;2.50;;;;;;;11.72;48.21;97777.63;8361396;23;20212;-73
2023/12/05 09:12:01;;;;;;;3.33;2.93;;;;;;;11.82;47.54;97772.47;8358447;23;20541;-74
2023/12/05 09:15:23;;;;;;;3.10;2.80;;;;;;;11.74;47.67;97790.91;8362339;23;20174;-74
2023/12/05 09:18:44;;;;;;;3.43;3.03;;;;;;;12.02;47.14;97782.84;8360052;23;20758;-74
2023/12/05 09:22:06;;;;;;;4.00;2.90;;;;;;;11.70;47.69;97787.03;8361120;23;20260;-73
2023/12/05 09:25:27;;;;;;;4.53;3.33;;;;;;;11.39;47.83;97798.97;8361766;23;20188;-75
2023/12/05 09:28:50;;;;;;;5.10;3.20;;;;;;;11.55;46.95;97794.75;8361264;23;20220;-74
2023/12/05 09:32:11;;;;;;;4.40;3.00;;;;;;;12.05;47.33;97804.78;8362274;23;20280;-74
2023/12/05 09:35:33;;;;;;;3.43;2.73;;;;;;;12.51;46.23;97807.34;8361550;23;20229;-74
2023/12/05 09:38:55;;;;;;;3.10;2.80;;;;;;;12.42;45.48;97807.97;8356791;23;20212;-73
2023/12/05 09:42:17;;;;;;;3.13;2.83;;;;;;;11.61;47.28;97791.13;8360199;23;20221;-74
2023/12/05 09:45:41;;;;;;;2.53;2.33;;;;;;;12.31;45.60;97792.63;8360707;23;20608;-74
2023/12/05 09:49:06;;;;;;;3.57;2.73;;;;;;;13.26;43.96;97807.91;8357197;23;20167;-74
2023/12/05 09:52:28;;;;;;;2.83;2.63;;;;;;;12.82;43.75;97814.16;8361992;23;20188;-73
2023/12/05 09:55:50;;;;;;;3.00;2.47;;;;;;;12.65;45.18;97824.13;8362680;23;20186;-74
2023/12/05 09:59:12;;;;;;;3.10;2.80;;;;;;;12.67;45.74;97811.16;8361595;23;20209;-74
2023/12/05 10:02:37;;;;;;;4.50;2.70;;;;;;;13.01;44.69;97805.63;8359086;23;20206;-74
2023/12/05 10:05:59;;;;;;;2.70;2.50;;;;;;;12.77;44.71;97808.66;8361558;23;20166;-74
2023/12/05 10:09:23;;;;;;;2.70;2.47;;;;;;;13.41;43.66;97813.59;8361776;23;20206;-74
2023/12/05 10:12:44;;;;;;;6.53;3.47;;;;;;;13.55;43.26;97802.16;8360719;23;20182;-74
2023/12/05 10:16:07;;;;;;;3.40;2.90;;;;;;;13.52;43.50;97799.94;8358536;23;20265;-74
2023/12/05 10:19:31;;;;;;;4.50;2.87;;;;;;;13.45;43.42;97768.72;8355902;23;20218;-75
2023/12/05 10:22:52;;;;;;;3.90;3.23;;;;;;;13.87;43.52;97784.19;8362419;23;20170;-74
2023/12/05 10:26:14;;;;;;;3.47;2.77;;;;;;;13.23;43.92;97776.75;8362751;23;20283;-74
2023/12/05 10:29:38;;;;;;;4.17;3.13;;;;;;;12.39;45.77;97786.84;8360348;23;20230;-74
2023/12/05 10:33:10;;;;;;;4.37;3.07;;;;;;;13.29;44.22;97770.34;8358994;23;20193;-75
2023/12/05 10:36:33;;;;;;;5.20;3.10;;;;;;;12.75;44.98;97781.84;8357975;23;20182;-73
2023/12/05 10:39:56;;;;;;;2.77;2.57;;;;;;;13.36;44.92;97770.19;8361295;23;20285;-74
2023/12/05 10:43:18;;;;;;;4.73;3.27;;;;;;;13.90;43.68;97774.75;8362702;23;20518;-77
2023/12/05 10:46:39;;;;;;;2.63;2.43;;;;;;;13.84;43.56;97763.03;8362733;23;20186;-76
2023/12/05 10:50:02;;;;;;;3.07;2.50;;;;;;;13.98;42.92;97763.50;8361350;23;20259;-75
2023/12/05 10:53:26;;;;;;;3.70;2.63;;;;;;;14.46;42.93;97763.56;8362184;23;20626;-79
2023/12/05 10:56:56;;;;;;;4.97;2.60;;;;;;;14.15;42.20;97762.34;8361451;23;20284;-76
2023/12/05 11:00:19;;;;;;;3.03;2.77;;;;;;;13.92;44.08;97768.00;8361880;23;20212;-77
2023/12/05 11:03:41;;;;;;;2.83;2.33;;;;;;;13.80;43.19;97761.88;8362704;23;20196;-74
2023/12/05 11:07:03;;;;;;;2.60;2.40;;;;;;;13.65;44.22;97767.13;8361870;23;20218;-75
2023/12/05 11:10:26;;;;;;;2.80;2.30;;;;;;;13.60;44.14;97766.19;8360578;23;20237;-77
2023/12/05 11:13:48;;;;;;;2.23;2.13;;;;;;;13.15;45.28;97731.16;8361118;23;20520;-74
2023/12/05 11:17:11;;;;;;;2.17;2.00;;;;;;;13.30;44.35;97757.63;8363202;23;20559;-75
2023/12/05 11:20:54;;;;;;;2.17;2.07;;;;;;;13.75;43.43;97759.09;8361602;23;20206;-75
2023/12/05 11:24:35;;;;;;;2.60;2.30;;;;;;;13.43;44.37;97743.75;8361761;23;20253;-75
2023/12/05 11:28:09;;;;;;;2.63;2.10;;;;;;;13.22;44.17;97748.03;8362224;23;20177;-76
2023/12/05 11:31:37;;;;;;;1.90;1.80;;;;;;;13.37;44.38;97750.16;8359955;23;20202;-75
2023/12/05 11:35:07;;;;;;;4.17;1.70;;;;;;;12.55;46.52;97740.94;8361409;23;20251;-76
2023/12/05 11:38:29;;;;;;;3.17;2.00;;;;;;;13.12;45.23;97747.06;8361547;23;20165;-77
2023/12/05 11:42:10;;;;;;;2.30;2.03;;;;;;;13.11;44.92;97740.03;8360854;23;20663;-76
2023/12/05 11:45:33;;;;;;;2.70;1.73;;;;;;;13.49;44.56;97745.47;8361815;23;20188;-76
2023/12/05 11:48:55;;;;;;;2.17;1.90;;;;;;;14.11;42.95;97744.94;8360161;23;20259;-76
2023/12/05 11:52:18;;;;;;;2.47;1.67;;;;;;;13.84;42.98;97735.09;8360431;23;20634;-75
2023/12/05 11:55:41;;;;;;;2.13;2.00;;;;;;;13.93;42.96;97739.84;8360015;23;20192;-76
2023/12/05 11:59:20;;;;;;;3.07;1.73;;;;;;;14.29;42.00;97741.91;8358100;23;20206;-76
2023/12/05 12:02:49;;;;;;;2.17;1.77;;;;;;;13.93;43.00;97739.84;8359082;23;20167;-78
2023/12/05 12:06:11;;;;;;;2.10;1.90;;;;;;;14.32;42.06;97740.59;8358775;23;20241;-78
2023/12/05 12:09:37;;;;;;;1.77;1.67;;;;;;;14.25;42.05;97734.56;8357042;23;20198;-75
2023/12/05 12:12:59;;;;;;;3.10;2.10;;;;;;;14.37;41.89;97762.34;8359775;23;20166;-75
2023/12/05 12:16:21;;;;;;;2.00;1.90;;;;;;;13.53;43.95;97757.44;8360782;23;20344;-76
2023/12/05 12:19:44;;;;;;;3.23;1.90;;;;;;;14.16;42.28;97750.41;8357769;23;20290;-76
2023/12/05 12:23:05;;;;;;;3.70;1.97;;;;;;;13.09;43.75;97737.56;8361656;23;20536;-75
2023/12/05 12:26:31;;;;;;;1.87;1.77;;;;;;;13.51;44.05;97751.47;8357881;23;20261;-76
2023/12/05 12:29:56;;;;;;;1.90;1.70;;;;;;;13.70;43.83;97760.94;8359965;23;20233;-76
2023/12/05 12:33:18;;;;;;;4.70;2.53;;;;;;;13.74;43.51;97756.66;8360827;23;20574;-76
2023/12/05 12:36:41;;;;;;;2.37;1.90;;;;;;;14.27;42.12;97748.69;8360662;23;20197;-76
2023/12/05 12:40:05;;;;;;;1.80;1.50;;;;;;;14.36;42.73;97739.84;8358886;23;20232;-77
2023/12/05 12:43:26;;;;;;;1.60;1.50;;;;;;;14.11;42.22;97736.00;8361161;23;20186;-78
2023/12/05 12:46:48;;;;;;;1.80;1.70;;;;;;;14.05;42.44;97740.53;8362280;23;20216;-77
2023/12/05 12:50:11;;;;;;;2.37;1.90;;;;;;;13.79;43.16;97744.00;8361122;23;20291;-78
2023/12/05 12:53:34;;;;;;;1.80;1.70;;;;;;;14.35;42.29;97756.38;8362830;23;20186;-78
2023/12/05 12:56:56;;;;;;;8.23;1.87;;;;;;;14.48;41.36;97754.09;8359146;23;20186;-77
2023/12/05 13:00:18;;;;;;;2.03;1.90;;;;;;;14.18;41.97;97759.13;8359848;23;20206;-78
2023/12/05 13:03:43;;;;;;;1.70;1.43;;;;;;;14.46;41.62;97752.72;8358866;23;20182;-77
2023/12/05 13:07:05;;;;;;;3.30;2.33;;;;;;;14.72;41.44;97765.44;8359741;23;20607;-78
2023/12/05 13:10:28;;;;;;;2.07;1.90;;;;;;;13.53;43.13;97755.56;8359027;23;20206;-77
2023/12/05 13:13:52;;;;;;;3.33;1.90;;;;;;;13.67;43.14;97756.00;8360538;23;20189;-81
2023/12/05 13:17:14;;;;;;;2.10;1.90;;;;;;;13.67;43.79;97770.38;8359939;23;20217;-78
2023/12/05 13:20:48;;;;;;;1.70;1.60;;;;;;;13.71;43.05;97770.69;8358295;23;20737;-78
2023/12/05 13:24:10;;;;;;;2.07;1.90;;;;;;;13.95;42.68;97764.81;8360143;23;20607;-77
2023/12/05 13:27:33;;;;;;;2.00;1.80;;;;;;;14.37;42.57;97771.31;8360572;23;20856;-78
2023/12/05 13:30:54;;;;;;;2.67;1.90;;;;;;;14.28;41.76;97759.28;8361149;23;20202;-76
2023/12/05 13:34:16;;;;;;;1.70;1.60;;;;;;;14.05;42.18;97764.91;8358917;23;20244;-76
2023/12/05 13:37:38;;;;;;;2.17;1.80;;;;;;;13.68;42.95;97779.34;8368241;23;20208;-77
2023/12/05 13:40:59;;;;;;;2.13;1.93;;;;;;;13.11;43.86;97784.13;8366488;23;20268;-78
2023/12/05 13:44:22;;;;;;;2.00;1.90;;;;;;;12.92;44.46;97779.19;8360123;23;20194;-75
2023/12/05 13:47:43;;;;;;;1.87;1.77;;;;;;;12.87;44.30;97789.91;8361780;23;20613;-75
2023/12/05 13:51:07;;;;;;;2.20;2.00;;;;;;;12.73;44.67;97788.56;8357680;23;20202;-75
2023/12/05 13:54:28;;;;;;;1.97;1.70;;;;;;;13.04;44.48;97774.53;8361620;23;20407;-77
2023/12/05 13:57:50;;;;;;;2.27;2.10;;;;;;;13.45;43.13;97784.94;8361769;23;20547;-75
2023/12/05 14:01:13;;;;;;;3.07;2.50;;;;;;;13.65;42.92;97791.50;8360367;23;20267;-75
2023/12/05 14:04:34;;;;;;;2.47;2.27;;;;;;;13.54;43.21;97775.31;8361425;23;20264;-75
2023/12/05 14:07:56;;;;;;;1.83;1.73;;;;;;;12.95;43.71;97784.94;8361156;23;20268;-75
2023/12/05 14:11:17;;;;;;;3.00;2.13;;;;;;;13.54;42.74;97783.44;8361785;23;20760;-76
2023/12/05 14:14:39;;;;;;;1.90;1.80;;;;;;;12.98;44.14;97794.47;8362688;23;20278;-75
2023/12/05 14:18:02;;;;;;;4.33;2.10;;;;;;;13.27;43.65;97796.84;8362307;23;20182;-76
2023/12/05 14:21:24;;;;;;;5.83;2.20;;;;;;;13.26;43.49;97797.91;8360528;23;20670;-76
2023/12/05 14:24:45;;;;;;;2.10;2.00;;;;;;;12.96;44.00;97802.00;8374138;23;20629;-76
2023/12/05 14:28:07;;;;;;;2.77;2.03;;;;;;;12.89;44.10;97804.00;8360781;23;20263;-76
2023/12/05 14:31:28;;;;;;;2.20;1.90;;;;;;;12.66;44.11;97796.00;8362103;23;20531;-75
2023/12/05 14:34:51;;;;;;;2.20;2.00;;;;;;;12.94;43.33;97804.09;8359300;23;20260;-76
2023/12/05 14:38:16;;;;;;;2.07;1.87;;;;;;;12.69;43.57;97793.63;8361702;23;20515;-75
2023/12/05 14:41:37;;;;;;;1.93;1.83;;;;;;;12.77;43.66;97797.84;8360815;23;20266;-76
2023/12/05 14:44:59;;;;;;;3.47;2.17;;;;;;;12.96;43.19;97821.75;8360806;23;20185;-76
2023/12/05 14:48:22;;;;;;;2.60;2.40;;;;;;;13.15;43.12;97831.28;8360308;23;20297;-76
2023/12/05 14:51:45;;;;;;;4.17;2.90;;;;;;;12.79;44.06;97823.59;8362429;23;20206;-75
2023/12/05 14:55:07;;;;;;;2.83;2.53;;;;;;;12.73;43.28;97823.72;8362408;23;20244;-78
2023/12/05 14:58:28;;;;;;;2.57;2.17;;;;;;;12.75;43.92;97833.22;8359784;23;20182;-77
2023/12/05 15:01:50;;;;;;;4.30;2.57;;;;;;;12.62;44.10;97827.31;8360791;23;20299;-76
2023/12/05 15:05:12;;;;;;;3.97;2.70;;;;;;;12.56;44.45;97831.78;8362004;23;20185;-76
2023/12/05 15:08:35;;;;;;;2.10;1.90;;;;;;;11.84;44.89;97834.31;8360389;23;20560;-76
2023/12/05 15:11:56;;;;;;;2.87;2.17;;;;;;;12.04;44.47;97856.38;8361099;23;20625;-75
2023/12/05 15:15:18;;;;;;;2.70;2.10;;;;;;;11.49;45.37;97853.19;8360362;23;20190;-75
2023/12/05 15:18:40;;;;;;;4.10;2.10;;;;;;;11.67;45.23;97860.38;8360807;23;20259;-76
2023/12/05 15:22:01;;;;;;;2.73;2.27;;;;;;;11.34;45.54;97869.00;8362216;23;20693;-75
2023/12/05 15:25:24;;;;;;;3.20;2.40;;;;;;;11.89;45.07;97872.25;8361737;23;20190;-78
2023/12/05 15:28:46;;;;;;;2.20;2.00;;;;;;;11.96;45.18;97860.25;8359560;23;20306;-75
2023/12/05 15:32:07;;;;;;;4.70;2.20;;;;;;;12.10;44.62;97871.66;8358642;23;20191;-76
2023/12/05 15:35:29;;;;;;;3.50;2.23;;;;;;;12.11;43.94;97874.09;8361346;23;20236;-77
2023/12/05 15:38:50;;;;;;;3.13;2.00;;;;;;;11.90;44.93;97877.41;8361099;23;20635;-75
2023/12/05 15:42:13;;;;;;;2.50;2.10;;;;;;;11.61;45.40;97878.34;8360510;23;20209;-75
2023/12/05 15:45:34;;;;;;;4.33;2.50;;;;;;;11.37;45.49;97884.75;8360716;23;20262;-76
2023/12/05 15:48:56;;;;;;;4.33;3.33;;;;;;;11.50;45.72;97883.69;8360373;23;20221;-75
2023/12/05 15:52:18;;;;;;;6.27;3.83;;;;;;;11.20;45.76;97893.72;8358475;23;20182;-75
2023/12/05 15:55:39;;;;;;;2.57;2.27;;;;;;;11.22;46.33;97889.75;8358768;23;20304;-76
2023/12/05 15:59:03;;;;;;;4.57;2.70;;;;;;;11.74;45.14;97894.31;8358846;23;20221;-75